Historique des stations

Station météo de Château-Renault

Altitude de la station : 120 m







Données météorologiques pour le 05/12/2021
Date
Heure
Températures Humidité Point de rosée Vitesse
du vent
Direction Rafales Windchill Pression Pluviométrie
Cumul
Date
Heure
Températures Humidité Point de rosée Vitesse
du vent
Direction Rafales Windchill Pression Pluviométrie
Cumul
05/12/2021 13:026.8 °C83 %3.9 °C6 km/hESE27 km/h5.6 1008 hPa0.8 mm
05/12/2021 12:487.3 °C81 %4.4 °C8 km/hSE29 km/h5.6 1008 hPa0.8 mm
05/12/2021 12:337.4 °C83 %5.0 °C11 km/hESE27 km/h5.0 1008 hPa0.8 mm
05/12/2021 12:186.9 °C83 %4.4 °C21 km/hSSE29 km/h3.3 1008 hPa0.8 mm
05/12/2021 12:036.8 °C84 %4.4 °C24 km/hESE31 km/h2.2 1008 hPa0.8 mm
05/12/2021 11:486.6 °C85 %4.4 °C6 km/hSE24 km/h5.6 1008 hPa0.8 mm
05/12/2021 11:326.2 °C86 %3.9 °C10 km/hSE26 km/h3.9 1008 hPa0.8 mm
05/12/2021 11:175.8 °C86 %3.9 °C6 km/hSE21 km/h4.4 1008 hPa0.8 mm
05/12/2021 11:025.5 °C87 %3.3 °C11 km/hE19 km/h2.8 1008 hPa0.8 mm
05/12/2021 10:475.2 °C88 %3.3 °C11 km/hESE19 km/h2.2 1008 hPa0.8 mm
05/12/2021 10:324.7 °C89 %3.3 °C5 km/hE14 km/h3.3 1008 hPa0.8 mm
05/12/2021 10:17-93 %-----1008 hPa0.5 mm
05/12/2021 10:02-93 %-----1008 hPa0.5 mm
05/12/2021 09:473.0 °C92 %1.7 °C13 km/hESE13 km/h-0.6 1008 hPa0.5 mm
05/12/2021 09:322.9 °C92 %1.7 °C6 km/hSE16 km/h1.1 1008 hPa0.5 mm
05/12/2021 09:172.9 °C92 %1.7 °C3 km/hENE16 km/h1.7 1008 hPa0.5 mm
05/12/2021 09:022.9 °C92 %1.7 °C8 km/hSE14 km/h0.6 1008 hPa0.5 mm
05/12/2021 08:472.8 °C92 %1.7 °C6 km/hESE13 km/h1.1 1008 hPa0.5 mm
05/12/2021 08:322.8 °C93 %1.7 °C3 km/hESE14 km/h1.7 1007 hPa0.5 mm
05/12/2021 08:172.7 °C93 %1.7 °C8 km/hSE18 km/h0.6 1007 hPa0.5 mm
05/12/2021 08:022.5 °C93 %1.7 °C11 km/hE16 km/h0.0 1007 hPa0.5 mm
05/12/2021 07:472.5 °C93 %1.7 °C11 km/hE18 km/h0.0 1007 hPa0.5 mm
05/12/2021 07:322.6 °C93 %1.7 °C6 km/hE18 km/h1.1 1007 hPa0.5 mm
05/12/2021 07:172.5 °C93 %1.7 °C6 km/hESE13 km/h1.1 1007 hPa0.5 mm
05/12/2021 07:022.3 °C93 %1.1 °C6 km/hSE11 km/h0.6 1007 hPa0.5 mm
05/12/2021 06:48-92 %-----1007 hPa0.5 mm
05/12/2021 06:34-92 %-----1007 hPa0.5 mm
05/12/2021 06:18-92 %-----1007 hPa0.5 mm
05/12/2021 06:03-92 %-----1007 hPa0.5 mm
05/12/2021 05:48-92 %-----1007 hPa0.5 mm
05/12/2021 05:33-92 %-----1007 hPa0.5 mm
05/12/2021 05:18-92 %-----1007 hPa0.5 mm
05/12/2021 05:033.1 °C92 %2.2 °C3 km/hSSE13 km/h2.2 1006 hPa0.5 mm
05/12/2021 04:483.3 °C92 %2.2 °C5 km/hESE13 km/h2.2 1006 hPa0.5 mm
05/12/2021 04:343.4 °C92 %2.2 °C6 km/hSE14 km/h1.7 1006 hPa0.5 mm
05/12/2021 04:183.4 °C91 %2.2 °C3 km/hE10 km/h2.2 1006 hPa0.5 mm
05/12/2021 04:033.6 °C91 %2.2 °C5 km/hESE10 km/h2.8 1006 hPa0.3 mm
05/12/2021 03:483.7 °C91 %2.2 °C3 km/hSE13 km/h2.8 1007 hPa0.3 mm
05/12/2021 03:333.8 °C91 %2.8 °C5 km/hE14 km/h2.8 1007 hPa0.3 mm
05/12/2021 03:183.8 °C91 %2.8 °C3 km/hE13 km/h2.8 1007 hPa0.3 mm
05/12/2021 03:033.8 °C90 %2.2 °C5 km/hENE6 km/h2.8 1007 hPa0.3 mm
05/12/2021 02:484.1 °C90 %2.8 °C5 km/hESE11 km/h2.8 1007 hPa0.3 mm
05/12/2021 02:334.2 °C90 %2.8 °C2 km/hENE11 km/h3.9 1007 hPa0.3 mm
05/12/2021 02:184.3 °C90 %2.8 °C6 km/hESE14 km/h2.8 1007 hPa0.3 mm
05/12/2021 02:034.1 °C90 %2.8 °C6 km/hSE13 km/h2.2 1007 hPa0.3 mm
05/12/2021 01:473.8 °C91 %2.2 °C11 km/hE14 km/h1.1 1007 hPa0.3 mm
05/12/2021 01:333.7 °C91 %2.2 °C3 km/hESE13 km/h2.8 1007 hPa0.3 mm
05/12/2021 01:21-37 %-----1007 hPa-
05/12/2021 01:06-37 %-----1008 hPa-
05/12/2021 00:51-37 %-----1008 hPa-
05/12/2021 00:32-37 %-----1008 hPa-
05/12/2021 00:17-37 %-----1008 hPa-
05/12/2021 00:01-37 %-----1008 hPa-


Minima :

Température : 2.3 °C
Humidité : 37 %
Point de rosée : 1.1 °C
Vent moyen : 2 km/h
Windchill : -0.6
Pression atm. : 1006 hPa
Maxima :

Température : 7.4 °C
Humidité : 93 %
Point de rosée : 5.0 °C
Vent moyen : 24 km/h
Windchill : 5.6
Pression atm. : 1008 hPa
Rafales max : 31 km/h
Cumul de pluie sur 24H : 0.8 mm

Chateau-RENAULT est une commune du département Indre-et-Loire (37).
La station météorologique du réseau de l'association la plus proche de Château-Renault est celle de Véretz



Icône Facebook Association Météo Centre Icône Twitter Association Météo Centre Icône Chaîne Youtube Association Météo Centre Icône contact Association Météo Centre Icône Insta Association Météo Centre